Cmb Sakura — 3EGO3 — position and weather

sailwx.info

Track history (hours):
 
Tides and Currents Weather Stations Pressure Air Temp Water Temp Dewpoint Dewpoint Depression Visibility Wind Speed Wind Dir Waves Ship Positions

Cmb Sakura

Last reported at 2014-Sep-20 19:20 UTC. Time now 2014-Sep-21 08:03 UTC.
Position N 47°18' W 122°27'.

Length 225 m; draft 6 m.

Type: Cargo ship. MMSI: 371784000.

Date/timePositionNaut miles runAvg speedWind from/ knotsBaromVisibWave heightAir tempDewpointWater temp
2014-Sep-20 19:20N 47°18' W 122°27'7 9.1
2014-Sep-20 18:33N 47°24' W 122°23'1515.1
2014-Sep-20 17:33N 47°39' W 122°28'1414.5
2014-Sep-20 16:34N 47°53' W 122°29'1413.1
2014-Sep-20 15:31N 48°05' W 122°40'1212.3
2014-Sep-20 14:33N 48°11' W 122°55'1313.0
2014-Sep-20 13:33N 48°11' W 123°14'9 9.0
2014-Sep-20 12:33N 48°11' W 123°28'6 5.9
2014-Sep-20 11:32N 48°13' W 123°36'7 7.4
2014-Sep-20 10:32N 48°13' W 123°47'1212.0
2014-Sep-20 09:34N 48°16' W 124°04'1212.0
2014-Sep-20 08:32N 48°21' W 124°21'1212.4
2014-Sep-20 07:34N 48°27' W 124°38'1212.4
2014-Sep-20 06:33N 48°29' W 124°56'1212.0
2014-Sep-20 05:33N 48°29' W 125°14'1211.7
2014-Sep-20 04:34N 48°29' W 125°32'1211.5
2014-Sep-20 03:33N 48°28' W 125°49'1010.1
2014-Sep-20 02:33N 48°28' W 126°05'1211.7
2014-Sep-20 01:31N 48°28' W 126°23'  
Track history (hours):
 
Tides and Currents Weather Stations Pressure Air Temp Water Temp Dewpoint Dewpoint Depression Visibility Wind Speed Wind Dir Waves Ship Positions

Cmb Sakura

Last reported at 2014-Sep-20 19:20 UTC. Time now 2014-Sep-21 08:03 UTC.
Position N 47°18' W 122°27'.

Length 225 m; draft 6 m.

Type: Cargo ship. MMSI: 371784000.

Date/timePositionNaut miles runAvg speedWind from/ knotsBaromVisibWave heightAir tempDewpointWater temp
2014-Sep-20 19:20N 47°18' W 122°27'7 9.1
2014-Sep-20 18:33N 47°24' W 122°23'1515.1
2014-Sep-20 17:33N 47°39' W 122°28'1414.5
2014-Sep-20 16:34N 47°53' W 122°29'1413.1
2014-Sep-20 15:31N 48°05' W 122°40'1212.3
2014-Sep-20 14:33N 48°11' W 122°55'1313.0
2014-Sep-20 13:33N 48°11' W 123°14'9 9.0
2014-Sep-20 12:33N 48°11' W 123°28'6 5.9
2014-Sep-20 11:32N 48°13' W 123°36'7 7.4
2014-Sep-20 10:32N 48°13' W 123°47'1212.0
2014-Sep-20 09:34N 48°16' W 124°04'1212.0
2014-Sep-20 08:32N 48°21' W 124°21'1212.4
2014-Sep-20 07:34N 48°27' W 124°38'1212.4
2014-Sep-20 06:33N 48°29' W 124°56'1212.0
2014-Sep-20 05:33N 48°29' W 125°14'1211.7
2014-Sep-20 04:34N 48°29' W 125°32'1211.5
2014-Sep-20 03:33N 48°28' W 125°49'1010.1
2014-Sep-20 02:33N 48°28' W 126°05'1211.7
2014-Sep-20 01:31N 48°28' W 126°23'  

Dump ship's entire track history